Time;durP1;ratioP1;P1;durP2;ratioP2;P2;SDS_P1;SDS_P2;PMS_P1;PMS_P2;Temp;Humidity;BMP_temperature;BMP_pressure;BME280_temperature;BME280_humidity;BME280_pressure;Samples;Min_cycle;Max_cycle;Signal;HPM_P1;HPM_P2
2022/09/10 00:01:41;;;;;;;5.10;2.38;;;17.80;99.90;;;;;;5071431;28;20178;-84
2022/09/10 00:04:10;;;;;;;9.35;2.60;;;17.90;99.90;;;;;;5072541;28;20210;-83
2022/09/10 00:06:37;;;;;;;9.50;2.80;;;18.00;99.90;;;;;;5072657;28;20174;-82
2022/09/10 00:09:04;;;;;;;12.98;2.63;;;17.80;99.90;;;;;;5071357;28;20166;-82
2022/09/10 00:11:30;;;;;;;10.73;2.63;;;17.80;99.90;;;;;;5072689;28;20147;-83
2022/09/10 00:13:58;;;;;;;5.07;2.40;;;17.80;99.90;;;;;;5071280;28;20637;-84
2022/09/10 00:16:24;;;;;;;11.52;2.67;;;17.80;99.90;;;;;;5071597;28;20208;-83
2022/09/10 00:18:50;;;;;;;6.55;2.40;;;17.70;99.90;;;;;;5071131;28;20167;-82
2022/09/10 00:21:19;;;;;;;5.65;2.50;;;17.70;99.90;;;;;;5071476;28;20180;-83
2022/09/10 00:23:46;;;;;;;11.02;2.42;;;17.70;99.90;;;;;;5072147;28;20773;-82
2022/09/10 00:26:20;;;;;;;6.45;2.38;;;17.70;99.90;;;;;;5072225;28;20507;-82
2022/09/10 00:28:47;;;;;;;7.45;2.47;;;17.80;99.90;;;;;;5071030;28;20197;-83
2022/09/10 00:31:14;;;;;;;8.68;2.53;;;17.80;99.90;;;;;;5071005;28;20173;-82
2022/09/10 00:33:40;;;;;;;8.60;2.92;;;17.80;99.90;;;;;;5071060;28;20213;-83
2022/09/10 00:36:38;;;;;;;9.70;2.90;;;17.80;99.90;;;;;;5070861;28;20166;-83
2022/09/10 00:39:07;;;;;;;8.95;2.35;;;17.50;99.90;;;;;;5070387;28;20274;-83
2022/09/10 00:41:35;;;;;;;6.47;2.05;;;17.50;99.90;;;;;;5072269;28;20166;-82
2022/09/10 00:44:24;;;;;;;10.48;2.55;;;17.50;99.90;;;;;;5070824;28;20210;-82
2022/09/10 00:46:50;;;;;;;10.13;3.15;;;17.70;99.90;;;;;;5071171;28;20266;-83
2022/09/10 00:49:32;;;;;;;10.63;2.78;;;17.70;99.90;;;;;;5070903;28;20171;-82
2022/09/10 00:51:58;;;;;;;14.35;2.70;;;17.70;99.90;;;;;;5072332;28;20166;-83
2022/09/10 00:54:27;;;;;;;7.85;2.75;;;17.70;99.90;;;;;;5072040;28;20218;-82
2022/09/10 00:56:55;;;;;;;7.10;2.60;;;17.80;99.90;;;;;;5074160;28;20171;-82
2022/09/10 00:59:25;;;;;;;9.95;2.38;;;17.70;99.90;;;;;;5075700;28;20224;-81
2022/09/10 01:01:50;;;;;;;8.52;2.80;;;17.70;99.90;;;;;;5076313;28;20190;-87
2022/09/10 01:04:16;;;;;;;11.50;3.22;;;17.80;99.90;;;;;;5076593;28;20741;-87
2022/09/10 01:06:44;;;;;;;10.00;3.17;;;17.90;99.90;;;;;;5075588;28;20261;-87
2022/09/10 01:09:11;;;;;;;4.97;2.50;;;17.90;99.90;;;;;;5079009;28;20166;-88
2022/09/10 01:12:18;;;;;;;4.30;2.72;;;17.90;99.90;;;;;;5076599;28;20188;-86
2022/09/10 01:15:02;;;;;;;7.05;3.30;;;17.80;99.90;;;;;;5074678;28;20190;-87
2022/09/10 01:17:30;;;;;;;15.38;3.00;;;17.70;99.90;;;;;;5058213;28;20184;-87
2022/09/10 01:20:05;;;;;;;8.38;2.97;;;17.50;99.90;;;;;;5075821;28;20257;-85
2022/09/10 01:22:53;;;;;;;6.25;3.30;;;17.50;99.90;;;;;;5076405;28;20223;-87
2022/09/10 01:25:36;;;;;;;7.22;3.17;;;17.50;99.90;;;;;;5075139;28;20220;-87
2022/09/10 01:28:09;;;;;;;6.47;2.85;;;17.50;99.90;;;;;;5076439;28;20167;-87
2022/09/10 01:30:42;;;;;;;6.15;3.35;;;17.50;99.90;;;;;;5075783;28;20206;-86
2022/09/10 01:33:15;;;;;;;12.38;3.45;;;17.60;99.90;;;;;;5075593;28;20185;-88
2022/09/10 01:35:50;;;;;;;7.93;2.92;;;17.70;99.90;;;;;;5075799;28;20534;-86
2022/09/10 01:38:21;;;;;;;18.08;3.08;;;17.70;99.90;;;;;;5075151;28;20278;-86
2022/09/10 01:40:48;;;;;;;7.93;3.15;;;17.70;99.90;;;;;;5076663;28;20174;-86
2022/09/10 01:43:14;;;;;;;5.40;2.58;;;17.70;99.90;;;;;;5075049;28;20202;-87
2022/09/10 01:46:07;;;;;;;12.32;4.00;;;17.80;99.90;;;;;;5075232;28;20183;-86
2022/09/10 01:49:10;;;;;;;8.43;3.28;;;17.80;99.90;;;;;;5075350;28;20175;-85
2022/09/10 01:52:17;;;;;;;16.25;4.20;;;17.80;99.90;;;;;;5075652;28;20162;-83
2022/09/10 01:55:08;;;;;;;9.38;2.85;;;17.70;99.90;;;;;;5074273;28;20604;-87
2022/09/10 01:57:51;;;;;;;9.90;3.25;;;17.70;99.90;;;;;;5074364;28;20171;-86
2022/09/10 02:00:18;;;;;;;5.85;3.55;;;17.50;99.90;;;;;;5074256;28;20174;-84
2022/09/10 02:03:00;;;;;;;12.05;3.67;;;17.50;99.90;;;;;;5073817;28;20205;-88
2022/09/10 02:05:28;;;;;;;7.82;3.30;;;17.60;99.90;;;;;;5074044;28;20186;-83
2022/09/10 02:08:01;;;;;;;24.88;3.70;;;17.60;99.90;;;;;;5073959;28;20167;-85
2022/09/10 02:10:27;;;;;;;9.38;3.90;;;17.50;99.90;;;;;;5075390;28;20173;-84
2022/09/10 02:12:53;;;;;;;6.82;2.95;;;17.60;99.90;;;;;;5074232;28;20162;-82
2022/09/10 02:15:21;;;;;;;9.02;3.25;;;17.50;99.90;;;;;;5073789;28;20686;-87
2022/09/10 02:17:48;;;;;;;11.40;4.05;;;17.40;99.90;;;;;;5074489;28;20254;-86
2022/09/10 02:20:15;;;;;;;7.07;3.28;;;17.50;99.90;;;;;;5073561;28;20535;-83
2022/09/10 02:22:57;;;;;;;12.63;3.53;;;17.60;99.90;;;;;;5073506;28;20198;-85
2022/09/10 02:25:24;;;;;;;6.03;3.47;;;17.50;99.90;;;;;;5074685;28;20229;-85
2022/09/10 02:27:50;;;;;;;10.75;3.97;;;17.50;99.90;;;;;;5073443;28;20257;-83
2022/09/10 02:30:15;;;;;;;12.32;3.90;;;17.50;99.90;;;;;;5073277;28;20221;-84
2022/09/10 02:32:41;;;;;;;10.00;3.38;;;17.70;99.90;;;;;;5073507;28;20170;-87
2022/09/10 02:35:07;;;;;;;10.70;4.15;;;17.50;99.90;;;;;;5073508;28;20694;-84
2022/09/10 02:37:33;;;;;;;9.32;4.00;;;17.40;99.90;;;;;;5073774;28;20197;-85
2022/09/10 02:39:59;;;;;;;11.63;4.25;;;17.40;99.90;;;;;;5073941;28;20259;-88
2022/09/10 02:42:25;;;;;;;6.70;3.50;;;17.50;99.90;;;;;;5074933;28;20213;-85
2022/09/10 02:44:50;;;;;;;9.95;4.30;;;17.50;99.90;;;;;;5073877;28;20183;-87
2022/09/10 02:47:17;;;;;;;8.68;4.20;;;17.60;99.90;;;;;;5075550;28;20228;-87
2022/09/10 02:49:42;;;;;;;4.63;3.47;;;17.60;99.90;;;;;;5073917;28;20647;-86
2022/09/10 02:52:08;;;;;;;12.43;4.13;;;17.60;99.90;;;;;;5074069;28;20177;-86
2022/09/10 02:54:33;;;;;;;7.90;4.45;;;17.50;99.90;;;;;;5073621;28;20193;-83
2022/09/10 02:56:59;;;;;;;13.73;4.28;;;17.50;99.90;;;;;;5074724;28;20194;-85
2022/09/10 02:59:25;;;;;;;7.95;4.00;;;17.40;99.90;;;;;;5073642;28;20202;-86
2022/09/10 03:01:53;;;;;;;9.93;4.75;;;17.40;99.90;;;;;;5074710;28;20181;-85
2022/09/10 03:04:18;;;;;;;10.63;5.05;;;17.50;99.90;;;;;;5073270;28;20206;-88
2022/09/10 03:06:48;;;;;;;16.83;5.35;;;17.60;99.90;;;;;;5073586;28;20175;-88
2022/09/10 03:09:13;;;;;;;12.90;5.97;;;17.50;99.90;;;;;;5074493;28;20194;-87
2022/09/10 03:11:39;;;;;;;9.65;5.28;;;17.60;99.90;;;;;;5073727;28;20187;-88
2022/09/10 03:14:05;;;;;;;11.77;5.72;;;17.50;99.90;;;;;;5074539;28;20194;-88
2022/09/10 03:16:31;;;;;;;8.85;6.38;;;17.60;99.90;;;;;;5074604;28;20178;-84
2022/09/10 03:18:57;;;;;;;10.88;6.53;;;17.60;99.90;;;;;;5073957;28;20548;-86
2022/09/10 03:21:26;;;;;;;11.30;7.05;;;17.70;99.90;;;;;;5074122;28;20525;-87
2022/09/10 03:23:52;;;;;;;11.55;7.07;;;17.60;99.90;;;;;;5072611;28;20721;-88
2022/09/10 03:26:20;;;;;;;7.95;7.05;;;17.70;99.90;;;;;;5073033;28;20550;-87
2022/09/10 03:28:47;;;;;;;12.98;8.18;;;17.60;99.90;;;;;;5072841;28;20232;-87
2022/09/10 03:31:14;;;;;;;9.35;7.72;;;17.50;99.90;;;;;;5072983;28;20220;-84
2022/09/10 03:33:40;;;;;;;12.75;8.45;;;17.60;99.90;;;;;;5072979;28;20170;-88
2022/09/10 03:36:07;;;;;;;19.35;9.52;;;17.50;99.90;;;;;;5073153;28;20166;-84
2022/09/10 03:38:32;;;;;;;15.27;9.05;;;17.50;99.90;;;;;;5073252;28;20578;-88
2022/09/10 03:41:00;;;;;;;18.17;9.23;;;17.50;99.90;;;;;;5072901;28;20163;-87
2022/09/10 03:43:25;;;;;;;18.38;9.85;;;17.50;99.90;;;;;;5073917;28;20194;-87
2022/09/10 03:45:51;;;;;;;12.60;8.73;;;17.50;99.90;;;;;;5072600;28;20529;-86
2022/09/10 03:48:19;;;;;;;15.40;9.30;;;17.50;99.90;;;;;;5074091;28;20216;-87
2022/09/10 03:50:45;;;;;;;13.88;9.48;;;17.50;99.90;;;;;;5072923;28;20258;-87
2022/09/10 03:53:15;;;;;;;10.27;9.35;;;17.60;99.90;;;;;;5073746;28;20170;-88
2022/09/10 03:55:45;;;;;;;22.95;10.95;;;17.60;99.90;;;;;;5073000;28;20198;-85
2022/09/10 03:58:11;;;;;;;14.50;9.65;;;17.50;99.90;;;;;;5072612;28;20170;-87
2022/09/10 04:00:37;;;;;;;14.35;10.90;;;17.60;99.90;;;;;;5072560;28;20189;-86
2022/09/10 04:03:04;;;;;;;18.13;10.10;;;17.60;99.90;;;;;;5072500;28;20292;-87
2022/09/10 04:05:31;;;;;;;17.65;10.15;;;17.60;99.90;;;;;;5072350;28;20222;-87
2022/09/10 04:07:57;;;;;;;18.52;10.98;;;17.50;99.90;;;;;;5072596;28;20547;-85
2022/09/10 04:10:24;;;;;;;15.50;10.90;;;17.60;99.90;;;;;;5072608;28;20227;-87
2022/09/10 04:12:52;;;;;;;15.77;10.73;;;17.50;99.90;;;;;;5073761;28;20202;-86
2022/09/10 04:15:18;;;;;;;12.52;10.88;;;17.50;99.90;;;;;;5072509;28;20682;-87
2022/09/10 04:17:45;;;;;;;14.60;11.95;;;17.40;99.90;;;;;;5073692;28;20159;-85
2022/09/10 04:20:11;;;;;;;19.90;12.45;;;17.50;99.90;;;;;;5072718;28;20625;-87
2022/09/10 04:22:37;;;;;;;22.73;12.45;;;17.60;99.90;;;;;;5072374;28;20270;-88
2022/09/10 04:25:03;;;;;;;20.77;12.15;;;17.60;99.90;;;;;;5073208;28;20197;-87
2022/09/10 04:27:29;;;;;;;26.13;12.90;;;17.60;99.90;;;;;;5073994;28;20158;-87
2022/09/10 04:29:55;;;;;;;24.30;12.68;;;17.60;99.90;;;;;;5076177;28;20174;-86
2022/09/10 04:32:21;;;;;;;21.95;14.68;;;17.60;99.90;;;;;;5078035;28;20169;-87
2022/09/10 04:34:46;;;;;;;26.25;13.55;;;17.50;99.90;;;;;;5078432;28;20671;-87
2022/09/10 04:37:12;;;;;;;22.17;13.05;;;17.50;99.90;;;;;;5078398;28;20257;-86
2022/09/10 04:39:37;;;;;;;20.38;12.48;;;17.50;99.90;;;;;;5101885;28;20189;-84
2022/09/10 04:42:05;;;;;;;27.40;15.88;;;17.50;99.90;;;;;;5101408;28;20158;-83
2022/09/10 04:44:31;;;;;;;26.63;15.02;;;17.50;99.90;;;;;;5100592;28;20194;-83
2022/09/10 04:46:57;;;;;;;21.13;14.15;;;17.50;99.90;;;;;;5100858;28;20174;-82
2022/09/10 04:49:23;;;;;;;18.88;13.32;;;17.60;99.90;;;;;;5100006;28;20167;-83
2022/09/10 04:51:49;;;;;;;16.15;12.25;;;17.50;99.90;;;;;;5100212;28;20167;-83
2022/09/10 04:54:15;;;;;;;22.90;15.13;;;17.50;99.90;;;;;;5099333;28;20196;-83
2022/09/10 04:56:42;;;;;;;19.10;14.70;;;17.40;99.90;;;;;;5082278;28;20178;-82
2022/09/10 04:59:09;;;;;;;18.98;14.60;;;17.50;99.90;;;;;;5083799;28;20181;-82
2022/09/10 05:01:35;;;;;;;23.20;15.32;;;17.50;99.90;;;;;;5085876;28;20166;-83
2022/09/10 05:04:01;;;;;;;25.65;15.52;;;17.50;99.90;;;;;;5085163;28;20212;-82
2022/09/10 05:06:26;;;;;;;20.98;15.13;;;17.60;99.90;;;;;;5086580;28;20178;-83
2022/09/10 05:08:54;;;;;;;29.50;16.58;;;17.50;99.90;;;;;;5083368;28;20707;-82
2022/09/10 05:11:20;;;;;;;25.08;16.83;;;17.50;99.90;;;;;;5077351;28;20193;-83
2022/09/10 05:13:46;;;;;;;23.45;15.75;;;17.50;99.90;;;;;;5074620;28;20194;-83
2022/09/10 05:16:12;;;;;;;25.38;16.60;;;17.60;99.90;;;;;;5075911;28;20674;-84
2022/09/10 05:18:38;;;;;;;24.98;15.90;;;17.50;99.90;;;;;;5075671;28;20174;-83
2022/09/10 05:21:04;;;;;;;21.38;14.65;;;17.50;99.90;;;;;;5074248;28;20519;-83
2022/09/10 05:23:30;;;;;;;23.73;15.85;;;17.50;99.90;;;;;;5074414;28;20203;-83
2022/09/10 05:25:56;;;;;;;22.58;15.52;;;17.50;99.90;;;;;;5073983;28;20261;-83
2022/09/10 05:28:23;;;;;;;22.83;17.08;;;17.50;99.90;;;;;;5074250;28;20198;-82
2022/09/10 05:30:48;;;;;;;24.80;16.30;;;17.50;99.90;;;;;;5074163;28;20196;-82
2022/09/10 05:33:15;;;;;;;24.83;16.65;;;17.50;99.90;;;;;;5074366;28;20171;-82
2022/09/10 05:35:41;;;;;;;24.63;17.33;;;17.50;99.90;;;;;;5075136;28;20221;-83
2022/09/10 05:38:09;;;;;;;29.48;15.95;;;17.50;99.90;;;;;;5074150;28;20171;-83
2022/09/10 05:40:35;;;;;;;23.88;16.00;;;17.50;99.90;;;;;;5076148;28;20249;-84
2022/09/10 05:43:01;;;;;;;25.90;17.20;;;17.50;99.90;;;;;;5076313;28;20214;-83
2022/09/10 05:45:27;;;;;;;25.10;16.17;;;17.70;99.90;;;;;;5075547;28;20186;-83
2022/09/10 05:47:52;;;;;;;29.45;16.63;;;17.60;99.90;;;;;;5076212;28;20261;-82
2022/09/10 05:50:18;;;;;;;24.80;17.38;;;17.50;99.90;;;;;;5075472;28;20170;-82
2022/09/10 05:52:45;;;;;;;24.25;15.85;;;17.70;99.90;;;;;;5073634;28;20161;-83
2022/09/10 05:55:11;;;;;;;20.42;15.20;;;17.60;99.90;;;;;;5073550;28;20598;-83
2022/09/10 05:57:39;;;;;;;25.58;15.25;;;17.60;99.90;;;;;;5075514;28;20217;-82
2022/09/10 06:00:07;;;;;;;28.27;16.50;;;17.50;99.90;;;;;;5074215;28;20174;-83
2022/09/10 06:02:33;;;;;;;25.70;15.98;;;17.50;99.90;;;;;;5074527;28;20173;-85
2022/09/10 06:04:59;;;;;;;27.65;15.90;;;17.50;99.90;;;;;;5073309;28;20186;-86
2022/09/10 06:07:29;;;;;;;25.55;15.48;;;17.50;99.90;;;;;;5074178;28;20257;-83
2022/09/10 06:09:59;;;;;;;25.77;14.68;;;17.40;99.90;;;;;;5075156;28;20693;-86
2022/09/10 06:12:25;;;;;;;21.83;15.48;;;17.60;99.90;;;;;;5075079;28;20254;-85
2022/09/10 06:14:51;;;;;;;27.42;15.35;;;17.60;99.90;;;;;;5073506;28;20247;-84
2022/09/10 06:17:17;;;;;;;25.70;16.02;;;17.70;99.90;;;;;;5073510;28;20261;-84
2022/09/10 06:19:44;;;;;;;28.20;15.38;;;17.70;99.90;;;;;;5072719;28;20620;-83
2022/09/10 06:22:11;;;;;;;35.00;15.68;;;17.80;99.90;;;;;;5072905;28;20198;-84
2022/09/10 06:24:37;;;;;;;23.23;15.77;;;17.70;99.90;;;;;;5072964;28;20309;-83
2022/09/10 06:27:04;;;;;;;20.38;14.90;;;17.70;99.90;;;;;;5074237;28;20195;-83
2022/09/10 06:29:29;;;;;;;19.08;14.02;;;17.80;99.90;;;;;;5072884;28;20174;-84
2022/09/10 06:31:55;;;;;;;18.75;13.10;;;17.90;99.90;;;;;;5073100;28;20171;-83
2022/09/10 06:34:21;;;;;;;18.23;14.77;;;17.90;99.90;;;;;;5072795;28;20252;-82
2022/09/10 06:36:48;;;;;;;18.13;14.45;;;18.00;99.90;;;;;;5072882;28;20163;-82
2022/09/10 06:39:14;;;;;;;26.95;13.75;;;17.90;99.90;;;;;;5074016;28;20170;-84
2022/09/10 06:41:41;;;;;;;17.67;13.73;;;18.00;99.90;;;;;;5073043;28;20654;-87
2022/09/10 06:44:07;;;;;;;18.85;13.05;;;18.00;99.90;;;;;;5072765;28;20206;-85
2022/09/10 06:46:33;;;;;;;20.50;13.95;;;18.20;99.90;;;;;;5072959;28;20181;-85
2022/09/10 06:49:01;;;;;;;20.95;12.88;;;18.20;99.90;;;;;;5073177;28;20170;-85
2022/09/10 06:51:28;;;;;;;18.25;12.85;;;18.10;99.90;;;;;;5074438;28;20155;-85
2022/09/10 06:53:54;;;;;;;17.45;12.88;;;18.10;99.90;;;;;;5071449;28;20201;-85
2022/09/10 06:56:19;;;;;;;21.33;13.13;;;18.10;99.90;;;;;;5073082;28;20208;-85
2022/09/10 06:58:45;;;;;;;17.42;11.32;;;18.00;99.90;;;;;;5072695;28;20247;-86
2022/09/10 07:01:19;;;;;;;19.70;12.00;;;18.10;99.90;;;;;;5074202;28;20198;-86
2022/09/10 07:03:45;;;;;;;20.15;12.25;;;18.10;99.90;;;;;;5073264;28;20281;-86
2022/09/10 07:06:14;;;;;;;16.15;11.45;;;18.20;99.90;;;;;;5072991;28;20166;-85
2022/09/10 07:08:40;;;;;;;20.58;11.77;;;18.20;99.90;;;;;;5072432;28;20369;-85
2022/09/10 07:11:10;;;;;;;16.70;11.90;;;18.10;99.90;;;;;;5073866;28;20163;-85
2022/09/10 07:13:36;;;;;;;18.48;11.77;;;18.10;99.90;;;;;;5072684;28;20596;-85
2022/09/10 07:16:02;;;;;;;20.27;11.80;;;18.10;99.90;;;;;;5073143;28;20162;-86
2022/09/10 07:18:29;;;;;;;16.90;11.95;;;18.20;99.90;;;;;;5073400;28;20576;-87
2022/09/10 07:21:06;;;;;;;21.20;11.80;;;18.20;99.90;;;;;;5072338;28;20281;-84
2022/09/10 07:23:32;;;;;;;19.35;11.60;;;18.10;99.90;;;;;;5073111;28;20213;-84
2022/09/10 07:26:10;;;;;;;22.33;12.30;;;18.30;99.90;;;;;;5073875;28;20167;-82
2022/09/10 07:28:37;;;;;;;27.23;13.00;;;18.40;99.90;;;;;;5073177;28;20158;-82
2022/09/10 07:31:26;;;;;;;21.67;12.70;;;18.50;99.90;;;;;;5073065;28;20212;-83
2022/09/10 07:33:53;;;;;;;22.08;14.73;;;18.50;99.90;;;;;;5073939;28;20190;-85
2022/09/10 07:36:20;;;;;;;24.70;13.05;;;18.50;99.90;;;;;;5073689;28;20182;-87
2022/09/10 07:38:46;;;;;;;21.85;12.55;;;18.50;99.90;;;;;;5074414;28;20177;-85
2022/09/10 07:41:14;;;;;;;16.58;12.80;;;18.40;99.90;;;;;;5072710;28;20216;-86
2022/09/10 07:43:41;;;;;;;21.60;12.95;;;18.40;99.90;;;;;;5072890;28;20202;-86
2022/09/10 07:46:10;;;;;;;14.85;12.40;;;18.40;99.90;;;;;;5072920;28;20216;-86
2022/09/10 07:48:37;;;;;;;31.20;14.48;;;18.50;99.90;;;;;;5072857;28;20590;-86
2022/09/10 07:51:04;;;;;;;13.52;11.50;;;18.70;99.90;;;;;;5072801;28;20171;-86
2022/09/10 07:53:30;;;;;;;16.88;11.82;;;18.80;99.90;;;;;;5073175;28;20557;-87
2022/09/10 07:56:00;;;;;;;20.58;11.20;;;19.00;99.90;;;;;;5073204;28;20174;-86
2022/09/10 07:58:31;;;;;;;12.20;9.85;;;19.10;99.90;;;;;;5073498;28;20249;-86
2022/09/10 08:01:01;;;;;;;14.70;10.95;;;19.20;99.90;;;;;;5072182;28;20563;-85
2022/09/10 08:03:27;;;;;;;22.77;11.00;;;19.30;99.90;;;;;;5071989;28;20206;-86
2022/09/10 08:05:54;;;;;;;13.85;10.32;;;19.30;99.90;;;;;;5071563;28;20183;-85
2022/09/10 08:08:21;;;;;;;14.68;9.90;;;19.40;99.90;;;;;;5071960;28;20173;-87
2022/09/10 08:10:48;;;;;;;19.13;12.73;;;19.30;99.90;;;;;;5072480;28;20159;-87
2022/09/10 08:13:14;;;;;;;18.00;11.75;;;19.20;99.90;;;;;;5072845;28;20532;-90
2022/09/10 08:15:42;;;;;;;16.73;12.15;;;19.10;99.90;;;;;;5073527;28;20190;-89
2022/09/10 08:18:09;;;;;;;29.98;11.32;;;19.10;99.90;;;;;;5071323;28;20170;-85
2022/09/10 08:20:34;;;;;;;19.52;12.40;;;19.10;99.90;;;;;;5072803;28;20185;-84
2022/09/10 08:23:01;;;;;;;27.65;13.10;;;19.00;99.90;;;;;;5075563;28;20289;-85
2022/09/10 08:25:27;;;;;;;16.35;11.45;;;19.00;99.90;;;;;;5076320;28;20249;-85
2022/09/10 08:27:53;;;;;;;14.27;11.13;;;18.80;99.90;;;;;;5073409;28;20166;-85
2022/09/10 08:30:19;;;;;;;16.52;11.93;;;19.00;99.90;;;;;;5071677;28;20174;-84
2022/09/10 08:32:45;;;;;;;22.58;11.98;;;19.20;99.90;;;;;;5072639;28;20166;-88
2022/09/10 08:35:10;;;;;;;16.52;11.45;;;19.30;99.90;;;;;;5072057;28;20190;-85
2022/09/10 08:37:36;;;;;;;16.33;11.43;;;19.20;99.90;;;;;;5070148;28;20244;-85
2022/09/10 08:40:04;;;;;;;13.40;10.63;;;19.20;99.90;;;;;;5069962;28;20261;-86
2022/09/10 08:42:50;;;;;;;17.90;10.77;;;19.20;99.90;;;;;;5072273;28;20212;-86
2022/09/10 08:45:31;;;;;;;11.80;10.70;;;19.30;99.90;;;;;;5070490;28;20221;-85
2022/09/10 08:48:02;;;;;;;11.50;10.15;;;19.30;99.90;;;;;;5070719;28;20178;-84
2022/09/10 08:50:51;;;;;;;18.77;10.25;;;19.30;99.90;;;;;;5072311;28;20170;-85
2022/09/10 08:53:42;;;;;;;15.82;9.48;;;19.30;99.90;;;;;;5070857;28;20193;-85
2022/09/10 08:56:14;;;;;;;11.52;9.30;;;19.60;99.90;;;;;;5070867;28;20701;-85
2022/09/10 08:58:53;;;;;;;12.40;10.40;;;19.70;99.90;;;;;;5071477;28;20163;-85
2022/09/10 09:01:49;;;;;;;15.13;9.93;;;19.80;99.90;;;;;;5070556;28;20651;-86
2022/09/10 09:04:33;;;;;;;12.48;9.27;;;19.90;99.90;;;;;;5070386;28;20547;-85
2022/09/10 09:07:02;;;;;;;8.32;7.45;;;19.80;99.90;;;;;;5070946;28;20175;-85
2022/09/10 09:09:28;;;;;;;16.10;8.77;;;19.80;99.90;;;;;;5072685;28;20166;-86
2022/09/10 09:12:20;;;;;;;21.15;8.07;;;19.60;99.90;;;;;;5072111;28;20224;-86
2022/09/10 09:14:55;;;;;;;11.98;8.07;;;19.60;99.90;;;;;;5070534;28;20285;-86
2022/09/10 09:17:47;;;;;;;12.82;6.72;;;19.90;99.90;;;;;;5073623;28;20646;-86
2022/09/10 09:20:47;;;;;;;11.45;6.25;;;20.30;99.90;;;;;;5074353;28;20538;-86
2022/09/10 09:23:40;;;;;;;10.90;7.00;;;20.80;99.90;;;;;;5072762;28;20283;-86
2022/09/10 09:26:12;;;;;;;7.53;5.93;;;21.00;99.90;;;;;;5075350;28;20200;-85
2022/09/10 09:28:50;;;;;;;12.82;5.88;;;21.00;99.90;;;;;;5074270;28;20261;-85
2022/09/10 09:31:21;;;;;;;11.70;6.43;;;21.00;99.90;;;;;;5074304;28;20170;-85
2022/09/10 09:33:49;;;;;;;7.85;5.65;;;21.00;99.90;;;;;;5074332;28;20189;-85
2022/09/10 09:36:22;;;;;;;8.07;5.97;;;21.00;99.90;;;;;;5074281;28;20171;-86
2022/09/10 09:38:49;;;;;;;6.47;5.75;;;21.10;99.90;;;;;;5074107;28;20162;-86
2022/09/10 09:41:24;;;;;;;7.22;5.60;;;21.20;99.90;;;;;;5074908;28;20213;-86
2022/09/10 09:44:02;;;;;;;11.30;5.95;;;21.20;99.90;;;;;;5073463;28;20213;-86
2022/09/10 09:46:27;;;;;;;13.65;6.18;;;21.20;99.90;;;;;;5074094;28;20712;-86
2022/09/10 09:48:59;;;;;;;7.15;5.95;;;21.10;99.90;;;;;;5073972;28;20201;-85
2022/09/10 09:51:29;;;;;;;12.05;7.03;;;21.20;99.90;;;;;;5073973;28;20531;-87
2022/09/10 09:53:59;;;;;;;9.07;6.25;;;21.20;99.90;;;;;;5073960;28;20668;-87
2022/09/10 09:56:35;;;;;;;7.30;5.70;;;21.20;99.90;;;;;;5073925;28;20175;-86
2022/09/10 09:59:10;;;;;;;7.72;6.60;;;21.40;99.90;;;;;;5074034;28;20232;-86
2022/09/10 10:01:41;;;;;;;11.00;7.32;;;21.40;99.90;;;;;;5073974;28;20185;-87
2022/09/10 10:04:23;;;;;;;5.53;5.13;;;21.40;99.90;;;;;;5073363;28;20301;-86
2022/09/10 10:06:56;;;;;;;6.53;5.72;;;21.50;99.90;;;;;;5073639;28;20162;-86
2022/09/10 10:09:26;;;;;;;16.70;5.32;;;21.70;99.90;;;;;;5073635;28;20217;-86
2022/09/10 10:11:54;;;;;;;8.73;4.35;;;22.00;99.90;;;;;;5073679;28;20173;-86
2022/09/10 10:14:19;;;;;;;7.07;3.75;;;22.10;99.90;;;;;;5074777;28;20194;-87
2022/09/10 10:16:50;;;;;;;8.32;3.90;;;22.10;99.90;;;;;;5073427;28;20201;-87
2022/09/10 10:19:36;;;;;;;16.25;4.10;;;22.00;99.90;;;;;;5073473;28;20628;-86
2022/09/10 10:22:15;;;;;;;6.13;4.55;;;22.10;99.90;;;;;;5073394;28;20194;-87
2022/09/10 10:24:42;;;;;;;5.47;3.47;;;22.50;99.90;;;;;;5073330;28;20213;-87
2022/09/10 10:27:34;;;;;;;4.35;3.08;;;22.40;99.90;;;;;;5073173;28;20527;-86
2022/09/10 10:30:06;;;;;;;8.77;3.40;;;22.50;99.90;;;;;;5072977;28;20167;-86
2022/09/10 10:32:39;;;;;;;7.25;2.90;;;22.30;99.90;;;;;;5072993;28;20246;-86
2022/09/10 10:35:43;;;;;;;6.75;2.72;;;22.30;99.90;;;;;;5072909;28;20681;-87
2022/09/10 10:38:32;;;;;;;6.03;2.88;;;22.20;99.90;;;;;;5072610;28;20170;-87
2022/09/10 10:41:15;;;;;;;6.28;5.30;;;22.20;99.90;;;;;;5073057;28;20166;-87
2022/09/10 10:43:46;;;;;;;11.75;2.72;;;22.30;99.90;;;;;;5072863;28;20287;-86
2022/09/10 10:46:36;;;;;;;5.07;3.33;;;22.20;99.90;;;;;;5073621;28;20178;-86
2022/09/10 10:49:33;;;;;;;5.28;3.35;;;22.60;99.90;;;;;;5074876;28;20175;-84
2022/09/10 10:52:10;;;;;;;7.65;2.85;;;22.80;99.90;;;;;;5072655;28;20316;-88
2022/09/10 10:55:08;;;;;;;5.93;3.25;;;22.80;99.90;;;;;;5073240;28;20555;-86
2022/09/10 10:57:55;;;;;;;6.68;5.20;;;22.80;99.90;;;;;;5072903;28;20228;-86
2022/09/10 11:00:21;;;;;;;7.25;3.83;;;23.00;99.90;;;;;;5072130;28;20174;-84
2022/09/10 11:03:17;;;;;;;8.50;7.82;;;22.90;99.90;;;;;;5071983;28;20253;-85
2022/09/10 11:05:50;;;;;;;6.32;4.13;;;23.30;99.90;;;;;;5071790;28;20205;-85
2022/09/10 11:08:31;;;;;;;12.50;3.20;;;23.10;99.90;;;;;;5072590;28;20167;-86
2022/09/10 11:11:15;;;;;;;9.23;4.28;;;22.90;99.90;;;;;;5072152;28;20654;-86
2022/09/10 11:13:54;;;;;;;6.95;3.17;;;22.80;99.90;;;;;;5073260;28;20177;-82
2022/09/10 11:16:33;;;;;;;10.23;2.78;;;22.60;99.90;;;;;;5072072;28;20197;-83
2022/09/10 11:19:17;;;;;;;12.57;6.43;;;22.50;99.90;;;;;;5071727;28;20170;-83
2022/09/10 11:21:57;;;;;;;4.20;3.17;;;22.40;99.90;;;;;;5073131;28;20174;-83
2022/09/10 11:24:32;;;;;;;9.70;3.83;;;22.60;99.90;;;;;;5072782;28;20233;-83
2022/09/10 11:27:31;;;;;;;4.80;3.13;;;22.60;99.90;;;;;;5072239;28;20188;-83
2022/09/10 11:30:08;;;;;;;7.18;3.55;;;22.80;99.90;;;;;;5071160;28;20163;-84
2022/09/10 11:33:08;;;;;;;11.05;3.67;;;22.40;99.90;;;;;;5071393;28;20178;-86
2022/09/10 11:35:44;;;;;;;13.02;2.95;;;22.50;99.90;;;;;;5071523;28;20195;-85
2022/09/10 11:38:23;;;;;;;7.15;2.55;;;22.70;99.90;;;;;;5071291;28;20184;-83
2022/09/10 11:40:51;;;;;;;3.40;2.78;;;22.60;99.90;;;;;;5071354;28;20636;-84
2022/09/10 11:43:24;;;;;;;7.55;2.85;;;22.70;99.90;;;;;;5073011;28;20194;-84
2022/09/10 11:45:54;;;;;;;4.00;2.83;;;22.90;99.90;;;;;;5071719;28;20190;-84
2022/09/10 11:48:29;;;;;;;5.65;2.90;;;22.70;99.90;;;;;;5071320;28;20257;-83
2022/09/10 11:51:00;;;;;;;5.55;2.40;;;22.20;99.90;;;;;;5070948;28;20262;-84
2022/09/10 11:53:26;;;;;;;3.65;2.67;;;21.80;99.90;;;;;;5070886;28;20245;-84
2022/09/10 11:55:58;;;;;;;8.48;3.83;;;21.50;99.90;;;;;;5071904;28;20569;-84
2022/09/10 11:58:32;;;;;;;6.43;2.53;;;21.20;99.90;;;;;;5071132;28;20173;-84
2022/09/10 12:01:23;;;;;;;8.60;3.05;;;21.00;99.90;;;;;;5070897;28;20233;-84
2022/09/10 12:04:23;;;;;;;13.57;3.75;;;21.10;99.90;;;;;;5070512;28;20214;-83
2022/09/10 12:07:00;;;;;;;11.65;3.55;;;21.20;99.90;;;;;;5066783;28;20193;-84
2022/09/10 12:09:55;;;;;;;8.07;3.17;;;21.40;99.90;;;;;;5070904;28;20216;-84
2022/09/10 12:12:38;;;;;;;6.85;2.90;;;21.40;99.90;;;;;;5070371;28;20174;-83
2022/09/10 12:15:32;;;;;;;5.00;2.20;;;21.50;99.90;;;;;;5070510;28;20547;-83
2022/09/10 12:18:06;;;;;;;11.43;2.78;;;21.60;99.90;;;;;;5072525;28;20639;-86
2022/09/10 12:20:58;;;;;;;3.08;2.50;;;21.70;99.90;;;;;;5073582;28;20177;-86
2022/09/10 12:23:31;;;;;;;8.18;1.95;;;21.90;99.90;;;;;;5071908;28;20195;-82
2022/09/10 12:26:18;;;;;;;5.97;2.33;;;21.70;99.90;;;;;;5070437;28;20177;-84
2022/09/10 12:28:48;;;;;;;5.95;1.95;;;21.60;99.90;;;;;;5070829;28;20532;-84
2022/09/10 12:31:15;;;;;;;2.28;1.70;;;21.50;99.90;;;;;;5071753;28;20270;-84
2022/09/10 12:33:41;;;;;;;4.40;1.88;;;21.50;99.90;;;;;;5070803;28;20607;-84
2022/09/10 12:36:07;;;;;;;2.88;1.95;;;21.40;99.90;;;;;;5070652;28;20190;-84
2022/09/10 12:39:18;;;;;;;2.00;1.55;;;21.50;99.90;;;;;;5070874;28;20200;-84
2022/09/10 12:41:44;;;;;;;4.80;1.50;;;21.50;99.90;;;;;;5070678;28;20174;-84
2022/09/10 12:44:35;;;;;;;5.97;2.03;;;21.30;99.90;;;;;;5070640;28;20213;-84
2022/09/10 12:47:15;;;;;;;4.53;1.50;;;21.30;99.90;;;;;;5070894;28;20167;-84
2022/09/10 12:49:56;;;;;;;4.47;1.80;;;21.30;99.90;;;;;;5072162;28;20171;-84
2022/09/10 12:52:33;;;;;;;5.70;1.48;;;21.10;99.90;;;;;;5074991;28;20174;-84
2022/09/10 12:55:18;;;;;;;7.40;6.15;;;21.10;99.90;;;;;;5076653;28;20198;-85
2022/09/10 12:58:15;;;;;;;5.55;3.20;;;21.00;99.90;;;;;;5076658;28;20162;-85
2022/09/10 13:00:53;;;;;;;2.78;1.58;;;21.00;99.90;;;;;;5075104;28;20628;-85